Aviation Digital Data Service (ADDS)

Output produced by METARs form (1858 UTC 18 June 2019)
found at http://www.aviationweather.gov/metar/data/
 
KAIK 181855Z AUTO 16005KT 10SM SCT043 SCT050 BKN070 30/20 A3000 RMK AO2 LTG DSNT SE
KAND 181856Z AUTO 00000KT 10SM CLR 27/22 A2997 RMK AO2 LTG DSNT SW SLP139 T02720217
KAND 181737Z 1818/1918 21004KT P6SM VCTS BKN023CB 
     TEMPO 1818/1821 VRB15G25KT 4SM TSRA BKN020CB 
     FM182100 VRB15G25KT 4SM -TSRA BKN025CB 
     FM190100 VRB03KT P6SM VCTS BKN050CB 
     FM190300 22003KT 3SM BR OVC010 
     FM191400 VRB04KT P6SM BKN020
       
KBNL 181855Z AUTO 11007KT 10SM CLR 31/21 A2995 RMK AO2 LTG DSNT SE
KARW 181855Z AUTO 15007KT 10SM SCT030 30/22 A2995 RMK AO2 LTG DSNT SE
KBBP 181855Z AUTO 14004KT 10SM SCT046 SCT050 31/22 A2995 RMK AO2 LTG DSNT S
KCDN 181855Z AUTO VRB06KT 10SM FEW046 BKN060 BKN075 31/21 A2996 RMK AO2
KCHS 181856Z 12013KT 10SM FEW028 SCT045 BKN250 29/22 A2996 RMK AO2 SLP145 T02940217
KCHS 181736Z 1818/1918 15010KT P6SM SCT035 
     FM190300 22005KT P6SM SCT020 BKN150 
     FM191400 25006KT P6SM SHRA SCT025 BKN040
       
KJZI 181855Z AUTO 12005KT 10SM BKN023 BKN027 BKN032 28/24 A2997 RMK AO2
KCQW 181855Z AUTO 23004KT 10SM FEW055 SCT070 SCT085 32/19 A2994 RMK AO2
KDCM 181855Z AUTO 12006KT 10SM CLR 30/17 A2998 RMK AO2 LTG DSNT SE
KCEU 181854Z AUTO VRB04KT 8SM BKN021 27/22 A2998 RMK AO2 LTG DSNT N AND S SLP141 T02720222
KCAE 181856Z 18006KT 10SM SCT041 BKN060 BKN250 29/21 A2995 RMK AO2 RAB20E41 SLP139 P0000 T02890211
KCAE 181735Z 1818/1918 20008KT P6SM VCSH BKN040 
     TEMPO 1822/1902 5SM TSRA BKN030CB 
     FM190300 VRB03KT P6SM VCSH OVC050 
     FM190900 VRB03KT P6SM SCT015 OVC070 
     FM191500 24008KT P6SM BKN035
       
KCUB 181853Z AUTO 19009KT 10SM OVC070 29/21 A2996 RMK AO2 SLP142 T02890211
KCUB 181735Z 1818/1918 20006KT P6SM VCSH BKN040 
     TEMPO 1822/1902 5SM TSRA BKN030CB 
     FM190300 VRB03KT P6SM VCSH OVC050 
     FM190900 VRB03KT P6SM SCT015 OVC070 
     FM191500 24008KT P6SM BKN035
       
KHYW 181855Z AUTO 14011G17KT 5SM HZ SCT034 30/21 A2999 RMK AO2 LTG DSNT S
KUDG 181856Z AUTO 18008G15KT 10SM FEW047 BKN070 32/21 A2996 RMK AO2 SLP144 T03220211
KFLO 181853Z 22010KT 10SM -RA SCT043 BKN065 BKN100 32/22 A2997 RMK AO2 RAB52 SLP145 P0000 T03170217
KFLO 181722Z 1818/1918 17009KT P6SM SCT040 
     FM190000 18005KT P6SM SCT030 BKN250 
     FM190600 20004KT P6SM BKN250 
     FM191400 24008KT P6SM SCT045
       
KGGE 181855Z AUTO 12011KT 10SM BKN026 BKN032 BKN039 29/22 A2999 RMK AO2
KGYH 181847Z 20004KT 10SM BKN023 28/23 A2998
KGMU 181853Z 19007KT 10SM SCT028 29/22 A2999 RMK AO2 LTG DSNT NW SLP144 T02890217
KGMU 181737Z 1818/1918 22006KT P6SM OVC025 
     FM190000 VRB15G25KT 4SM -TSRA BKN030CB 
     FM190200 VRB03KT P6SM VCTS BKN030CB 
     FM190400 VRB04KT P6SM OVC040 
     FM191000 22003KT P6SM OVC010 
     FM191400 23006KT P6SM BKN020
       
KGRD 181856Z AUTO 20003KT 10SM CLR 29/19 A2998 RMK AO2 SLP145 T02940189
KGSP 181853Z 17007KT 10SM BKN024 BKN049 28/20 A2998 RMK AO2 SLP140 T02830200
KGSP 181737Z 1818/1918 22006KT P6SM VCTS BKN023CB 
     FM190000 VRB15G25KT 4SM -TSRA BKN030CB 
     FM190200 VRB03KT P6SM VCTS BKN030CB 
     FM190400 VRB04KT P6SM OVC040 
     FM191000 22003KT P6SM OVC010 
     FM191400 23006KT P6SM BKN020
       
KHVS 181835Z AUTO 22005KT 10SM CLR 32/20 A2996 RMK AO2
KHXD 181850Z 15005G10KT 10SM SCT025 29/24 A2997 RMK CU SW-NE
KCKI 181855Z AUTO 15005KT 4SM +RA SCT032 BKN041 OVC048 25/24 A2997 RMK AO2 LTG DSNT SE
KLKR 181855Z AUTO 12005KT CLR 30/19 A2997 RMK AO2
KLUX 181855Z AUTO 19003KT 7SM SCT060 29/19 A2997 RMK AO2 LTG DSNT S
KMNI 181855Z AUTO 14005KT 10SM SCT033 SCT039 SCT046 29/22 A2996 RMK AO2
KMAO 181855Z AUTO 27003KT 10SM RA SCT030 SCT041 OVC050 27/23 A2998 RMK AO2 P0001
KMKS 181855Z AUTO 12009KT 090V150 10SM CLR 30/24 A2996 RMK AO2 LTG DSNT S
KLRO 181855Z AUTO 00000KT 9SM FEW023 29/24 A2997 RMK AO2
KMYR 181856Z 16011KT 10SM SCT023 28/23 A3001 RMK AO2 SLP161 T02830233
KMYR 181722Z 1818/1918 16011G16KT P6SM FEW030 
     FM190000 18008KT P6SM SCT030 SCT250 
     FM190300 21006KT P6SM SCT020 BKN250 
     FM190900 25006KT P6SM SCT035 SCT250 
     FM191600 20012KT P6SM SCT100
       
KEOE 181855Z AUTO 00000KT 10SM SCT043 SCT049 BKN055 30/21 A3000 RMK AO2
KCRE 181853Z 16010KT 10SM CLR 28/23 A3001 RMK AO1 SLP161 T02830233
KCRE 181722Z 1818/1918 17010G16KT P6SM FEW030 
     FM190000 18008KT P6SM SCT030 SCT250 
     FM190300 21006KT P6SM SCT020 BKN250 
     FM190900 25006KT P6SM SCT035 SCT250 
     FM191600 20013KT P6SM SCT100
       
KOGB 181853Z AUTO 15008KT 10SM FEW050 SCT060 BKN090 29/21 A2997 RMK AO2 RAE1757 TSE1754 SLP144 P0000 T02940206
KOGB 181735Z 1818/1918 25008KT P6SM VCSH SCT035 BKN050 
     TEMPO 1818/1820 4SM TSRA BKN035CB OVC050 
     FM182000 19008KT P6SM VCSH BKN050 
     TEMPO 1823/1902 5SM TSRA BKN030CB 
     FM190400 VRB03KT P6SM VCSH OVC050 
     FM190900 VRB03KT P6SM SCT015 OVC070 
     FM191500 24008KT P6SM BKN035
       
KLQK 181855Z AUTO 18003KT 10SM SCT021 SCT028 SCT033 28/23 A2997 RMK AO2 LTG DSNT NW T02800228
KUZA 181854Z AUTO 19007KT 10SM CLR 31/19 A2997 RMK AO2 SLP134 T03060194
KSPA 181855Z AUTO 23005KT 10SM BKN029 BKN036 BKN042 28/20 A2998 RMK AO2
KDYB 181855Z AUTO 11005KT 10SM SCT036 30/21 A2996 RMK AO1 LTG DSNT SE
KSMS 181855Z AUTO VRB06KT 10SM FEW042 33/22 A2996 RMK AO2
KRBW 181855Z AUTO 00000KT 10SM SCT029 SCT055 BKN085 28/24 A2997 RMK AO2 LTG DSNT SE
KFDW 181855Z AUTO 15003KT 10SM CLR 31/19 A2997 RMK AO1